MAD weather

Adolfo Suárez Madrid–Barajas Airport
Madrid, Madrid, Spain

Public forecast

Using degrees Celsius for public forecast. Weather courtesy of forecast.io.

Current aviation weather report (METAR) for Adolfo Suárez Madrid–Barajas Airport

Retrieved 2020/01/26 20:30 UTC (0 seconds ago):

LEMD 262030Z 25006KT 220V290 9999 FEW050 07/04 Q1024 NOSIG

Aviation forecast (TAF) for Adolfo Suárez Madrid–Barajas Airport

Retrieved 2020/01/26 18:29 UTC (2 hours ago):

TAF LEMD 261700Z 2618/2724 VRB05KT 9999 SCT025 BKN050 TX12/2715Z TNM00/2706Z TEMPO 2618/2620 22008KT PROB40 TEMPO 2622/2712 3500 BR BCFG BKN007 PROB30 TEMPO 2623/2713 0150 FG VV001 TEMPO 2706/2724 23011KT PROB30 TEMPO 2709/2724 3500 DZRA BKN012